Time;durP1;ratioP1;P1;durP2;ratioP2;P2;SDS_P1;SDS_P2;PMS_P1;PMS_P2;Temp;Humidity;BMP_temperature;BMP_pressure;BME280_temperature;BME280_humidity;BME280_pressure;Samples;Min_cycle;Max_cycle;Signal;HPM_P1;HPM_P2
2022/06/14 00:01:53;;;;;;;6.50;2.00;;;;;;;;;;5074009;28;20174;-68
2022/06/14 00:04:19;;;;;;;4.00;1.87;;;;;;;;;;5075013;28;20527;-67
2022/06/14 00:06:46;;;;;;;5.40;2.13;;;;;;;;;;5056343;28;20178;-66
2022/06/14 00:09:12;;;;;;;3.83;1.90;;;;;;;;;;5074471;28;20718;-67
2022/06/14 00:11:39;;;;;;;3.80;2.10;;;;;;;;;;5073977;28;20181;-67
2022/06/14 00:14:06;;;;;;;2.93;2.07;;;;;;;;;;5073931;28;20181;-67
2022/06/14 00:16:32;;;;;;;5.83;2.40;;;;;;;;;;5074424;28;20632;-67
2022/06/14 00:18:58;;;;;;;5.20;2.10;;;;;;;;;;5074090;28;20213;-68
2022/06/14 00:21:25;;;;;;;6.33;2.30;;;;;;;;;;5055848;28;20178;-66
2022/06/14 00:23:51;;;;;;;5.63;2.33;;;;;;;;;;5074148;28;20707;-66
2022/06/14 00:26:17;;;;;;;6.53;2.27;;;;;;;;;;5055784;28;20185;-67
2022/06/14 00:28:44;;;;;;;4.33;1.80;;;;;;;;;;5073461;28;20257;-68
2022/06/14 00:31:14;;;;;;;5.40;2.00;;;;;;;;;;5073386;28;20209;-67
2022/06/14 00:33:40;;;;;;;6.93;2.40;;;;;;;;;;5055595;28;20178;-67
2022/06/14 00:36:08;;;;;;;6.13;2.17;;;;;;;;;;5073720;28;20181;-66
2022/06/14 00:38:35;;;;;;;5.43;2.37;;;;;;;;;;5073693;28;20174;-67
2022/06/14 00:41:02;;;;;;;5.33;2.07;;;;;;;;;;5055412;28;20209;-67
2022/06/14 00:43:29;;;;;;;2.97;2.20;;;;;;;;;;5073694;28;20174;-66
2022/06/14 00:46:13;;;;;;;3.03;1.83;;;;;;;;;;5073585;28;20729;-66
2022/06/14 00:48:41;;;;;;;3.60;2.23;;;;;;;;;;5073761;28;20177;-67
2022/06/14 00:51:09;;;;;;;7.13;2.10;;;;;;;;;;5073240;28;20201;-66
2022/06/14 00:53:50;;;;;;;4.60;2.10;;;;;;;;;;5073749;28;20718;-67
2022/06/14 00:56:18;;;;;;;4.93;2.30;;;;;;;;;;5055294;28;20654;-66
2022/06/14 00:58:48;;;;;;;5.37;2.90;;;;;;;;;;5073692;28;20185;-67
2022/06/14 01:01:17;;;;;;;3.90;1.73;;;;;;;;;;5073268;28;20677;-67
2022/06/14 01:03:51;;;;;;;3.33;2.20;;;;;;;;;;5073160;28;20632;-66
2022/06/14 01:06:25;;;;;;;7.13;2.40;;;;;;;;;;5073097;28;20172;-66
2022/06/14 01:08:59;;;;;;;3.70;2.30;;;;;;;;;;5073216;28;20169;-66
2022/06/14 01:11:31;;;;;;;5.03;2.40;;;;;;;;;;5055239;28;20224;-67
2022/06/14 01:13:57;;;;;;;9.10;2.37;;;;;;;;;;5073906;28;20158;-66
2022/06/14 01:16:23;;;;;;;3.60;1.93;;;;;;;;;;5055173;28;20218;-66
2022/06/14 01:18:49;;;;;;;6.90;2.93;;;;;;;;;;5055144;28;20247;-67
2022/06/14 01:21:15;;;;;;;3.73;2.17;;;;;;;;;;5055246;28;20299;-66
2022/06/14 01:23:41;;;;;;;5.33;2.30;;;;;;;;;;5055036;28;20177;-67
2022/06/14 01:26:11;;;;;;;6.47;2.67;;;;;;;;;;5073437;28;20182;-67
2022/06/14 01:28:38;;;;;;;3.07;2.70;;;;;;;;;;5073165;28;20174;-66
2022/06/14 01:31:05;;;;;;;4.20;2.50;;;;;;;;;;5072998;28;20312;-66
2022/06/14 01:33:36;;;;;;;4.33;2.40;;;;;;;;;;5073122;28;20178;-66
2022/06/14 01:36:06;;;;;;;4.63;2.47;;;;;;;;;;5073523;28;20568;-67
2022/06/14 01:38:32;;;;;;;6.80;2.77;;;;;;;;;;5073335;28;20551;-66
2022/06/14 01:41:17;;;;;;;4.23;2.60;;;;;;;;;;5072944;28;20239;-66
2022/06/14 01:43:52;;;;;;;5.87;2.83;;;;;;;;;;5073116;28;20591;-69
2022/06/14 01:46:29;;;;;;;6.43;2.93;;;;;;;;;;5073253;28;20223;-67
2022/06/14 01:51:54;;;;;;;6.53;2.87;;;;;;;;;;5073142;28;20205;-66
2022/06/14 01:54:28;;;;;;;6.83;2.63;;;;;;;;;;5054977;28;20622;-67
2022/06/14 01:57:09;;;;;;;6.87;2.70;;;;;;;;;;5073252;28;20158;-66
2022/06/14 01:59:42;;;;;;;6.57;2.70;;;;;;;;;;5076353;28;20210;-67
2022/06/14 02:02:10;;;;;;;5.70;2.67;;;;;;;;;;5076645;28;20170;-66
2022/06/14 02:04:40;;;;;;;3.60;2.87;;;;;;;;;;5076223;28;20231;-68
2022/06/14 02:07:25;;;;;;;4.47;2.87;;;;;;;;;;5076242;28;20219;-67
2022/06/14 02:09:57;;;;;;;8.37;2.83;;;;;;;;;;5076223;28;20204;-66
2022/06/14 02:12:34;;;;;;;5.93;2.70;;;;;;;;;;5076429;28;20185;-67
2022/06/14 02:15:02;;;;;;;4.80;3.20;;;;;;;;;;5076416;28;20165;-67
2022/06/14 02:17:31;;;;;;;6.23;3.00;;;;;;;;;;5076067;28;20261;-66
2022/06/14 02:20:01;;;;;;;8.87;3.30;;;;;;;;;;5075767;28;20210;-66
2022/06/14 02:22:39;;;;;;;4.77;2.77;;;;;;;;;;5058186;28;20268;-66
2022/06/14 02:25:12;;;;;;;7.10;3.10;;;;;;;;;;5076046;28;20158;-67
2022/06/14 02:27:44;;;;;;;4.13;3.07;;;;;;;;;;5057976;28;20181;-66
2022/06/14 02:30:13;;;;;;;10.57;3.00;;;;;;;;;;5075628;28;20689;-66
2022/06/14 02:32:42;;;;;;;5.77;2.70;;;;;;;;;;5057663;28;20178;-66
2022/06/14 02:35:22;;;;;;;4.00;2.77;;;;;;;;;;5075723;28;20653;-66
2022/06/14 02:37:57;;;;;;;6.63;3.10;;;;;;;;;;5075639;28;20178;-66
2022/06/14 02:40:38;;;;;;;5.10;2.90;;;;;;;;;;5075297;28;20217;-66
2022/06/14 02:43:07;;;;;;;7.57;3.03;;;;;;;;;;5057934;28;20319;-67
2022/06/14 02:45:39;;;;;;;5.60;3.20;;;;;;;;;;5057378;28;20178;-66
2022/06/14 02:48:08;;;;;;;5.20;3.07;;;;;;;;;;5075366;28;20174;-66
2022/06/14 02:50:41;;;;;;;6.93;3.03;;;;;;;;;;5075422;28;20201;-67
2022/06/14 02:53:22;;;;;;;6.40;2.93;;;;;;;;;;5075213;28;20184;-66
2022/06/14 02:55:51;;;;;;;6.27;3.20;;;;;;;;;;5057325;28;20626;-67
2022/06/14 02:58:25;;;;;;;5.17;3.43;;;;;;;;;;5075342;28;20185;-67
2022/06/14 03:00:56;;;;;;;9.17;3.67;;;;;;;;;;5074961;28;20217;-66
2022/06/14 03:03:27;;;;;;;4.83;3.40;;;;;;;;;;5075601;28;20522;-66
2022/06/14 03:06:16;;;;;;;6.57;3.13;;;;;;;;;;5075351;28;20174;-66
2022/06/14 03:08:42;;;;;;;5.57;3.60;;;;;;;;;;5060943;28;20201;-66
2022/06/14 03:11:17;;;;;;;5.87;3.23;;;;;;;;;;5056771;28;20210;-67
2022/06/14 03:14:02;;;;;;;8.03;3.70;;;;;;;;;;5074712;28;20173;-66
2022/06/14 03:16:28;;;;;;;5.83;3.40;;;;;;;;;;5074853;28;20181;-66
2022/06/14 03:19:01;;;;;;;11.27;3.37;;;;;;;;;;5074581;28;20265;-66
2022/06/14 03:21:39;;;;;;;7.60;3.43;;;;;;;;;;5056669;28;20184;-66
2022/06/14 03:24:14;;;;;;;5.77;3.13;;;;;;;;;;5056617;28;20181;-66
2022/06/14 03:27:02;;;;;;;3.50;3.20;;;;;;;;;;5074498;28;20637;-67
2022/06/14 03:29:40;;;;;;;6.70;4.07;;;;;;;;;;5056358;28;20278;-67
2022/06/14 03:32:12;;;;;;;4.93;3.30;;;;;;;;;;5074946;28;20569;-66
2022/06/14 03:34:44;;;;;;;6.20;3.60;;;;;;;;;;5056589;28;20185;-67
2022/06/14 03:37:11;;;;;;;6.93;3.90;;;;;;;;;;5056323;28;20177;-66
2022/06/14 03:39:40;;;;;;;7.03;3.90;;;;;;;;;;5080756;22;20213;-65
2022/06/14 03:42:07;;;;;;;7.10;4.47;;;;;;;;;;5056730;28;20249;-66
2022/06/14 03:44:33;;;;;;;6.97;4.40;;;;;;;;;;5056260;28;20170;-66
2022/06/14 03:47:15;;;;;;;6.93;3.70;;;;;;;;;;5055973;28;20545;-66
2022/06/14 03:49:43;;;;;;;5.67;3.73;;;;;;;;;;5056719;28;20209;-66
2022/06/14 03:52:18;;;;;;;4.60;3.37;;;;;;;;;;5056587;28;20176;-66
2022/06/14 03:54:47;;;;;;;5.27;3.63;;;;;;;;;;5056796;28;20170;-64
2022/06/14 03:57:24;;;;;;;10.17;4.30;;;;;;;;;;5056251;28;20579;-65
2022/06/14 04:00:16;;;;;;;8.50;4.07;;;;;;;;;;5056425;28;20225;-64
2022/06/14 04:02:54;;;;;;;9.90;3.73;;;;;;;;;;5002247;28;20218;-65
2022/06/14 04:05:26;;;;;;;8.77;4.20;;;;;;;;;;5057447;28;20228;-63
2022/06/14 04:07:59;;;;;;;6.13;3.77;;;;;;;;;;5058307;28;20270;-63
2022/06/14 04:10:31;;;;;;;6.37;4.00;;;;;;;;;;5056196;28;20693;-64
2022/06/14 04:12:57;;;;;;;6.93;4.17;;;;;;;;;;5037794;28;20186;-64
2022/06/14 04:15:31;;;;;;;9.17;3.80;;;;;;;;;;5037422;28;20657;-64
2022/06/14 04:18:34;;;;;;;7.60;4.23;;;;;;;;;;5055387;28;20158;-64
2022/06/14 04:20:50;;;;;;;9.40;4.30;;;;;;;;;;5054273;28;20590;-64
2022/06/14 04:23:27;;;;;;;11.37;4.47;;;;;;;;;;5054705;28;20182;-64
2022/06/14 04:25:55;;;;;;;7.70;4.03;;;;;;;;;;5055297;28;20173;-64
2022/06/14 04:28:36;;;;;;;9.10;4.33;;;;;;;;;;5037047;28;20185;-64
2022/06/14 04:31:07;;;;;;;7.47;4.43;;;;;;;;;;5054045;28;20331;-66
2022/06/14 04:33:39;;;;;;;7.83;4.50;;;;;;;;;;5054731;28;20245;-64
2022/06/14 04:36:10;;;;;;;9.37;4.73;;;;;;;;;;5054510;28;20162;-64
2022/06/14 04:38:57;;;;;;;8.43;4.87;;;;;;;;;;5036211;28;20237;-64
2022/06/14 04:41:26;;;;;;;9.03;4.87;;;;;;;;;;5036239;28;20224;-67
2022/06/14 04:44:12;;;;;;;6.53;4.20;;;;;;;;;;5054322;28;20182;-65
2022/06/14 04:46:42;;;;;;;8.70;4.63;;;;;;;;;;5053660;28;20162;-67
2022/06/14 04:49:11;;;;;;;6.27;4.40;;;;;;;;;;5036582;28;20180;-66
2022/06/14 04:51:46;;;;;;;9.93;4.67;;;;;;;;;;5054305;28;20194;-65
2022/06/14 04:54:16;;;;;;;8.53;3.87;;;;;;;;;;5054670;28;20182;-65
2022/06/14 04:56:57;;;;;;;6.23;3.90;;;;;;;;;;5037434;28;20209;-65
2022/06/14 04:59:30;;;;;;;6.47;3.53;;;;;;;;;;5036326;28;20688;-66
2022/06/14 05:02:10;;;;;;;5.10;3.27;;;;;;;;;;5054774;28;20174;-66
2022/06/14 05:04:42;;;;;;;3.77;2.73;;;;;;;;;;5036785;28;20165;-65
2022/06/14 05:07:08;;;;;;;6.20;3.07;;;;;;;;;;5036715;28;20179;-65
2022/06/14 05:09:36;;;;;;;4.90;2.90;;;;;;;;;;5037013;28;20278;-66
2022/06/14 05:12:05;;;;;;;5.73;2.77;;;;;;;;;;5054781;28;20182;-66
2022/06/14 05:14:35;;;;;;;8.13;3.10;;;;;;;;;;5055243;28;20183;-67
2022/06/14 05:17:04;;;;;;;5.87;3.07;;;;;;;;;;5055211;28;20171;-68
2022/06/14 05:19:53;;;;;;;5.50;2.47;;;;;;;;;;5054421;28;20202;-67
2022/06/14 05:22:32;;;;;;;5.23;2.77;;;;;;;;;;5024435;28;20216;-66
2022/06/14 05:24:58;;;;;;;6.50;3.00;;;;;;;;;;5036899;28;20198;-67
2022/06/14 05:27:37;;;;;;;6.27;3.20;;;;;;;;;;5036233;28;20182;-67
2022/06/14 05:30:08;;;;;;;7.13;3.27;;;;;;;;;;5037289;28;20202;-66
2022/06/14 05:32:36;;;;;;;5.27;3.13;;;;;;;;;;5056418;28;20173;-66
2022/06/14 05:35:26;;;;;;;11.27;3.80;;;;;;;;;;5058646;28;20270;-66
2022/06/14 05:37:55;;;;;;;10.10;3.50;;;;;;;;;;5040701;28;20178;-67
2022/06/14 05:40:27;;;;;;;8.07;3.43;;;;;;;;;;5057993;28;20218;-65
2022/06/14 05:42:58;;;;;;;5.90;3.07;;;;;;;;;;5057671;28;20256;-66
2022/06/14 05:45:25;;;;;;;11.23;3.03;;;;;;;;;;5058562;28;20289;-66
2022/06/14 05:47:55;;;;;;;6.67;3.33;;;;;;;;;;5041176;28;20328;-65
2022/06/14 05:50:23;;;;;;;6.23;2.97;;;;;;;;;;5058166;28;20209;-65
2022/06/14 05:53:08;;;;;;;7.73;3.33;;;;;;;;;;5058313;28;20182;-66
2022/06/14 05:55:37;;;;;;;9.33;3.83;;;;;;;;;;5058084;28;20183;-67
2022/06/14 05:58:12;;;;;;;5.40;3.03;;;;;;;;;;5058482;28;20194;-67
2022/06/14 06:00:46;;;;;;;5.67;3.23;;;;;;;;;;5057834;28;20292;-65
2022/06/14 06:03:31;;;;;;;6.23;3.13;;;;;;;;;;5058158;28;20555;-66
2022/06/14 06:06:02;;;;;;;8.50;2.90;;;;;;;;;;5057746;28;20309;-66
2022/06/14 06:08:43;;;;;;;10.50;3.80;;;;;;;;;;5058203;28;20178;-65
2022/06/14 06:11:29;;;;;;;8.07;3.67;;;;;;;;;;5057350;28;20198;-66
2022/06/14 06:14:05;;;;;;;7.13;3.27;;;;;;;;;;5057475;28;20198;-65
2022/06/14 06:16:45;;;;;;;7.00;3.20;;;;;;;;;;5057936;28;20188;-67
2022/06/14 06:19:20;;;;;;;7.07;3.53;;;;;;;;;;5038701;28;20621;-63
2022/06/14 06:21:46;;;;;;;10.67;3.33;;;;;;;;;;5039070;28;20222;-66
2022/06/14 06:24:27;;;;;;;10.27;2.70;;;;;;;;;;5056600;28;20275;-66
2022/06/14 06:26:57;;;;;;;7.60;2.90;;;;;;;;;;5057168;28;20563;-66
2022/06/14 06:29:32;;;;;;;7.60;2.90;;;;;;;;;;5056666;28;20680;-67
2022/06/14 06:31:59;;;;;;;6.37;2.80;;;;;;;;;;5056448;28;20177;-66
2022/06/14 06:34:25;;;;;;;8.17;2.43;;;;;;;;;;5056466;28;20228;-66
2022/06/14 06:37:10;;;;;;;9.40;3.40;;;;;;;;;;5056241;28;20178;-66
2022/06/14 06:39:36;;;;;;;7.27;3.43;;;;;;;;;;5056730;28;20562;-68
2022/06/14 06:42:11;;;;;;;6.40;3.57;;;;;;;;;;5038405;28;20256;-66
2022/06/14 06:44:46;;;;;;;8.43;3.33;;;;;;;;;;5056248;28;20186;-67
2022/06/14 06:47:15;;;;;;;10.07;3.23;;;;;;;;;;5056213;28;20627;-67
2022/06/14 06:50:03;;;;;;;7.03;3.20;;;;;;;;;;5056461;28;20179;-66
2022/06/14 06:52:44;;;;;;;8.90;3.77;;;;;;;;;;5056285;28;20178;-68
2022/06/14 06:55:13;;;;;;;5.73;3.43;;;;;;;;;;5056376;28;20261;-67
2022/06/14 06:57:40;;;;;;;8.73;4.33;;;;;;;;;;5056143;28;20178;-67
2022/06/14 07:00:06;;;;;;;10.63;5.03;;;;;;;;;;5055866;28;20210;-66
2022/06/14 07:02:35;;;;;;;8.20;4.53;;;;;;;;;;5037907;28;20183;-68
2022/06/14 07:05:14;;;;;;;8.90;3.87;;;;;;;;;;5037626;28;20179;-66
2022/06/14 07:07:58;;;;;;;7.20;3.97;;;;;;;;;;5038512;28;20618;-67
2022/06/14 07:10:38;;;;;;;6.10;3.23;;;;;;;;;;5056014;28;20205;-66
2022/06/14 07:13:12;;;;;;;11.27;3.47;;;;;;;;;;5037889;28;20178;-65
2022/06/14 07:15:40;;;;;;;9.20;3.53;;;;;;;;;;5056386;28;20163;-65
2022/06/14 07:18:32;;;;;;;9.33;3.53;;;;;;;;;;5037647;28;20186;-65
2022/06/14 07:21:14;;;;;;;8.17;2.80;;;;;;;;;;5017737;28;20275;-65
2022/06/14 07:24:00;;;;;;;7.10;3.00;;;;;;;;;;5055499;28;20249;-65
2022/06/14 07:26:35;;;;;;;6.67;3.33;;;;;;;;;;5037652;28;20244;-66
2022/06/14 07:29:13;;;;;;;13.23;4.00;;;;;;;;;;5055315;28;20189;-65
2022/06/14 07:31:52;;;;;;;11.63;4.07;;;;;;;;;;5055494;28;20194;-66
2022/06/14 07:34:18;;;;;;;6.77;3.03;;;;;;;;;;5055295;28;20167;-66
2022/06/14 07:36:51;;;;;;;5.77;3.00;;;;;;;;;;5055444;28;20180;-67
2022/06/14 07:39:20;;;;;;;8.63;3.17;;;;;;;;;;5037690;28;20171;-67
2022/06/14 07:41:49;;;;;;;11.80;3.80;;;;;;;;;;5055220;28;20246;-68
2022/06/14 07:44:18;;;;;;;6.77;3.10;;;;;;;;;;5037639;28;20210;-66
2022/06/14 07:46:50;;;;;;;3.93;2.60;;;;;;;;;;5037224;28;20324;-66
2022/06/14 07:49:20;;;;;;;7.23;3.10;;;;;;;;;;5055642;28;20209;-67
2022/06/14 07:51:50;;;;;;;4.40;2.87;;;;;;;;;;5055414;28;20195;-68
2022/06/14 07:54:19;;;;;;;9.13;3.70;;;;;;;;;;5055593;28;20489;-67
2022/06/14 07:56:56;;;;;;;8.50;3.57;;;;;;;;;;5057612;28;20189;-67
2022/06/14 07:59:33;;;;;;;7.17;3.10;;;;;;;;;;5058044;28;20202;-68
2022/06/14 08:02:05;;;;;;;7.97;3.10;;;;;;;;;;5055176;28;20201;-66
2022/06/14 08:04:44;;;;;;;7.83;2.77;;;;;;;;;;5054802;28;20178;-67
2022/06/14 08:07:14;;;;;;;7.80;2.40;;;;;;;;;;5055139;28;20521;-67
2022/06/14 08:09:43;;;;;;;12.57;3.30;;;;;;;;;;5054075;28;20220;-66
2022/06/14 08:12:13;;;;;;;8.80;3.30;;;;;;;;;;5036377;28;20186;-67
2022/06/14 08:14:54;;;;;;;5.13;3.13;;;;;;;;;;5054093;28;20261;-67
2022/06/14 08:17:23;;;;;;;10.47;2.83;;;;;;;;;;5054535;28;20170;-66
2022/06/14 08:20:08;;;;;;;4.67;2.80;;;;;;;;;;5054040;28;20228;-66
2022/06/14 08:22:37;;;;;;;9.67;3.40;;;;;;;;;;5036201;28;20189;-66
2022/06/14 08:25:07;;;;;;;3.73;2.47;;;;;;;;;;5054572;28;20587;-66
2022/06/14 08:27:36;;;;;;;5.50;3.23;;;;;;;;;;5054073;28;20216;-67
2022/06/14 08:30:07;;;;;;;11.77;3.67;;;;;;;;;;5035817;28;20218;-66
2022/06/14 08:32:49;;;;;;;7.20;2.90;;;;;;;;;;5053651;28;20186;-65
2022/06/14 08:35:21;;;;;;;5.10;3.03;;;;;;;;;;5053873;28;20175;-67
2022/06/14 08:37:55;;;;;;;3.63;2.90;;;;;;;;;;5053736;28;20202;-65
2022/06/14 08:40:21;;;;;;;7.70;3.47;;;;;;;;;;5053127;28;20209;-66
2022/06/14 08:42:48;;;;;;;7.07;3.33;;;;;;;;;;5053682;28;20268;-67
2022/06/14 08:45:27;;;;;;;8.23;3.60;;;;;;;;;;5053879;28;20638;-70
2022/06/14 08:48:05;;;;;;;4.53;2.87;;;;;;;;;;5054246;28;20163;-66
2022/06/14 08:50:31;;;;;;;9.00;3.57;;;;;;;;;;5035679;28;20228;-67
2022/06/14 08:53:09;;;;;;;7.60;3.53;;;;;;;;;;5053472;28;20180;-67
2022/06/14 08:55:50;;;;;;;6.90;3.40;;;;;;;;;;5053575;28;20162;-67
2022/06/14 08:58:31;;;;;;;5.43;2.30;;;;;;;;;;5053493;28;20178;-67
2022/06/14 09:01:00;;;;;;;8.03;2.67;;;;;;;;;;5053451;28;20214;-66
2022/06/14 09:03:44;;;;;;;4.73;2.70;;;;;;;;;;5035335;28;20188;-67
2022/06/14 09:06:29;;;;;;;5.97;2.80;;;;;;;;;;5053227;28;20166;-66
2022/06/14 09:09:12;;;;;;;6.20;3.00;;;;;;;;;;5056998;28;20167;-67
2022/06/14 09:11:44;;;;;;;8.43;2.80;;;;;;;;;;5057794;28;20208;-67
2022/06/14 09:14:22;;;;;;;5.97;2.67;;;;;;;;;;5057349;28;20174;-64
2022/06/14 09:16:51;;;;;;;4.37;2.70;;;;;;;;;;5057655;28;20212;-66
2022/06/14 09:19:23;;;;;;;7.20;2.97;;;;;;;;;;5057171;28;20264;-66
2022/06/14 09:22:25;;;;;;;6.33;2.63;;;;;;;;;;5057070;28;20198;-66
2022/06/14 09:24:51;;;;;;;7.23;2.10;;;;;;;;;;4957696;29;20197;-65
2022/06/14 09:27:17;;;;;;;8.50;3.00;;;;;;;;;;5019855;28;20191;-66
2022/06/14 09:29:43;;;;;;;3.33;2.23;;;;;;;;;;5056943;28;20182;-65
2022/06/14 09:32:09;;;;;;;5.77;3.00;;;;;;;;;;5056793;28;20183;-66
2022/06/14 09:34:48;;;;;;;6.67;2.33;;;;;;;;;;5038888;28;20183;-66
2022/06/14 09:37:33;;;;;;;7.87;2.33;;;;;;;;;;5039350;28;20173;-66
2022/06/14 09:40:25;;;;;;;4.97;2.20;;;;;;;;;;5056987;28;20372;-66
2022/06/14 09:43:10;;;;;;;3.97;2.10;;;;;;;;;;5052831;28;20244;-67
2022/06/14 09:45:54;;;;;;;7.93;2.60;;;;;;;;;;5039259;28;20236;-68
2022/06/14 09:48:23;;;;;;;4.73;2.50;;;;;;;;;;5056883;28;20181;-67
2022/06/14 09:51:05;;;;;;;7.33;3.00;;;;;;;;;;5039005;28;20202;-68
2022/06/14 09:53:50;;;;;;;4.20;2.80;;;;;;;;;;5038829;28;20626;-67
2022/06/14 09:56:21;;;;;;;5.83;3.07;;;;;;;;;;5057708;28;20175;-68
2022/06/14 09:58:58;;;;;;;6.43;2.77;;;;;;;;;;5042395;28;20634;-67
2022/06/14 10:01:50;;;;;;;6.50;2.90;;;;;;;;;;5059012;28;20284;-67
2022/06/14 10:04:19;;;;;;;7.73;2.53;;;;;;;;;;5060665;28;20162;-68
2022/06/14 10:07:15;;;;;;;4.60;2.53;;;;;;;;;;5058762;28;20181;-67
2022/06/14 10:09:56;;;;;;;6.80;2.70;;;;;;;;;;4970059;28;20205;-67
2022/06/14 10:12:41;;;;;;;8.77;3.53;;;;;;;;;;5056866;28;20178;-65
2022/06/14 10:15:14;;;;;;;5.13;2.90;;;;;;;;;;5056686;28;20555;-66
2022/06/14 10:17:58;;;;;;;7.10;3.77;;;;;;;;;;5056385;28;20232;-67
2022/06/14 10:20:31;;;;;;;8.90;4.20;;;;;;;;;;5056568;28;20701;-67
2022/06/14 10:23:06;;;;;;;4.30;3.03;;;;;;;;;;5056792;28;20178;-67
2022/06/14 10:28:44;;;;;;;4.60;2.67;;;;;;;;;;5055998;28;20308;-67
2022/06/14 10:31:15;;;;;;;3.33;2.00;;;;;;;;;;5055848;28;20744;-67
2022/06/14 10:33:50;;;;;;;4.67;2.57;;;;;;;;;;5056074;28;20690;-67
2022/06/14 10:36:20;;;;;;;9.57;3.20;;;;;;;;;;5038038;28;20245;-67
2022/06/14 10:38:52;;;;;;;5.73;3.20;;;;;;;;;;5056169;28;20194;-67
2022/06/14 10:41:27;;;;;;;6.87;3.57;;;;;;;;;;5037709;28;20308;-67
2022/06/14 10:44:05;;;;;;;6.87;3.77;;;;;;;;;;5038067;28;20185;-67
2022/06/14 10:46:35;;;;;;;6.13;3.37;;;;;;;;;;5038498;28;20266;-67
2022/06/14 10:49:10;;;;;;;7.13;3.40;;;;;;;;;;5056208;28;20175;-68
2022/06/14 10:51:49;;;;;;;6.27;3.00;;;;;;;;;;5038354;28;20571;-68
2022/06/14 10:54:20;;;;;;;4.70;3.07;;;;;;;;;;5038488;28;20580;-67
2022/06/14 10:57:09;;;;;;;7.37;3.00;;;;;;;;;;5038415;28;20198;-68
2022/06/14 10:59:53;;;;;;;5.57;3.17;;;;;;;;;;5056285;28;20250;-67
2022/06/14 11:02:38;;;;;;;7.33;3.33;;;;;;;;;;5055966;28;20175;-68
2022/06/14 11:05:14;;;;;;;5.90;3.50;;;;;;;;;;5055456;28;20205;-67
2022/06/14 11:07:59;;;;;;;6.17;4.47;;;;;;;;;;5055715;28;20197;-67
2022/06/14 11:10:30;;;;;;;5.80;3.50;;;;;;;;;;5055391;28;20205;-65
2022/06/14 11:12:59;;;;;;;9.00;4.20;;;;;;;;;;5055539;28;20174;-68
2022/06/14 11:15:31;;;;;;;10.43;3.87;;;;;;;;;;5055243;28;20183;-68
2022/06/14 11:18:20;;;;;;;10.50;3.83;;;;;;;;;;5055007;28;20653;-67
2022/06/14 11:20:52;;;;;;;9.57;3.40;;;;;;;;;;4991983;28;20230;-68
2022/06/14 11:23:24;;;;;;;7.87;3.27;;;;;;;;;;5037042;28;20179;-68
2022/06/14 11:26:09;;;;;;;7.67;3.60;;;;;;;;;;5055081;28;20265;-68
2022/06/14 11:28:42;;;;;;;12.47;4.17;;;;;;;;;;5037178;28;20217;-68
2022/06/14 11:34:09;;;;;;;10.10;3.83;;;;;;;;;;5073005;28;20217;-67
2022/06/14 11:36:35;;;;;;;8.03;3.40;;;;;;;;;;5056393;28;20363;-67
2022/06/14 11:39:15;;;;;;;6.50;3.17;;;;;;;;;;5074240;28;20257;-66
2022/06/14 11:41:44;;;;;;;5.30;3.33;;;;;;;;;;5074046;28;20703;-67
2022/06/14 11:44:22;;;;;;;7.67;3.40;;;;;;;;;;5074104;28;20641;-67
2022/06/14 11:46:58;;;;;;;7.60;3.63;;;;;;;;;;5056304;28;20178;-67
2022/06/14 11:49:48;;;;;;;5.23;3.10;;;;;;;;;;5056236;28;20170;-67
2022/06/14 11:52:18;;;;;;;5.97;2.80;;;;;;;;;;5055907;28;20631;-67
2022/06/14 11:54:53;;;;;;;5.37;3.30;;;;;;;;;;5073895;28;20169;-66
2022/06/14 11:57:36;;;;;;;6.37;2.77;;;;;;;;;;5074142;28;20170;-67
2022/06/14 12:00:23;;;;;;;8.80;2.70;;;;;;;;;;5073987;28;20190;-67
2022/06/14 12:03:18;;;;;;;6.27;3.10;;;;;;;;;;5073639;28;20193;-67
2022/06/14 12:05:48;;;;;;;9.70;3.10;;;;;;;;;;5043254;28;20189;-67
2022/06/14 12:08:35;;;;;;;5.57;2.50;;;;;;;;;;5073970;28;20208;-66
2022/06/14 12:11:05;;;;;;;4.37;2.47;;;;;;;;;;5073539;28;20181;-66
2022/06/14 12:13:46;;;;;;;4.90;2.47;;;;;;;;;;5073435;28;20197;-66
2022/06/14 12:16:51;;;;;;;8.93;2.67;;;;;;;;;;5055429;28;20185;-67
2022/06/14 12:19:21;;;;;;;7.33;2.43;;;;;;;;;;4972636;28;20212;-67
2022/06/14 12:22:26;;;;;;;5.70;2.20;;;;;;;;;;4972407;28;20343;-67
2022/06/14 12:27:40;;;;;;;9.93;2.27;;;;;;;;;;5073461;28;20172;-64
2022/06/14 12:30:07;;;;;;;5.67;2.30;;;;;;;;;;5073210;28;20668;-67
2022/06/14 12:32:35;;;;;;;7.67;2.60;;;;;;;;;;5073215;28;20263;-66
2022/06/14 12:35:06;;;;;;;4.27;1.90;;;;;;;;;;5073035;28;20181;-66
2022/06/14 12:37:40;;;;;;;6.50;2.33;;;;;;;;;;5073152;28;20169;-66
2022/06/14 12:40:25;;;;;;;7.23;2.50;;;;;;;;;;5055052;28;20350;-67
2022/06/14 12:43:09;;;;;;;5.70;2.27;;;;;;;;;;5072883;28;20280;-66
2022/06/14 12:45:39;;;;;;;8.63;2.33;;;;;;;;;;5055142;28;20189;-67
2022/06/14 12:48:34;;;;;;;3.33;1.93;;;;;;;;;;5072958;28;20181;-66
2022/06/14 12:51:19;;;;;;;5.17;2.13;;;;;;;;;;5001853;28;20578;-66
2022/06/14 12:53:45;;;;;;;5.73;1.77;;;;;;;;;;5054899;28;20699;-66
2022/06/14 12:56:13;;;;;;;6.93;2.17;;;;;;;;;;5055004;28;20183;-67
2022/06/14 12:58:39;;;;;;;6.50;2.50;;;;;;;;;;5054953;28;20185;-67
2022/06/14 13:01:31;;;;;;;5.00;2.13;;;;;;;;;;5072840;28;20694;-67
2022/06/14 13:04:00;;;;;;;6.30;2.67;;;;;;;;;;5069499;28;20220;-66
2022/06/14 13:06:35;;;;;;;3.30;1.93;;;;;;;;;;5054934;28;20272;-68
2022/06/14 13:09:06;;;;;;;4.83;2.03;;;;;;;;;;5054963;28;20169;-67
2022/06/14 13:11:49;;;;;;;5.10;2.30;;;;;;;;;;5073381;28;20169;-66
2022/06/14 13:14:23;;;;;;;3.50;2.10;;;;;;;;;;5072961;28;20605;-66
2022/06/14 13:17:22;;;;;;;3.77;2.00;;;;;;;;;;5072858;28;20166;-67
2022/06/14 13:19:55;;;;;;;4.13;2.00;;;;;;;;;;5028657;28;20217;-67
2022/06/14 13:22:24;;;;;;;5.87;2.20;;;;;;;;;;5072936;28;20566;-67
2022/06/14 13:25:08;;;;;;;6.63;2.30;;;;;;;;;;5072999;28;20217;-66
2022/06/14 13:27:53;;;;;;;4.03;2.20;;;;;;;;;;5054899;28;20288;-67
2022/06/14 13:30:22;;;;;;;6.27;2.10;;;;;;;;;;5072614;28;20184;-67
2022/06/14 13:32:58;;;;;;;6.03;2.30;;;;;;;;;;5072568;28;20213;-67
2022/06/14 13:35:30;;;;;;;4.27;2.07;;;;;;;;;;5072666;28;20656;-67
2022/06/14 13:38:00;;;;;;;6.63;2.20;;;;;;;;;;5072701;28;20205;-67
2022/06/14 13:40:44;;;;;;;7.67;2.60;;;;;;;;;;5072948;28;20545;-67
2022/06/14 13:43:32;;;;;;;4.83;2.37;;;;;;;;;;5072637;28;20253;-67
2022/06/14 13:46:01;;;;;;;4.73;2.40;;;;;;;;;;5054480;28;20174;-67
2022/06/14 13:48:31;;;;;;;2.67;2.07;;;;;;;;;;5054507;28;20264;-67
2022/06/14 13:51:12;;;;;;;4.43;2.20;;;;;;;;;;5054537;28;20190;-67
2022/06/14 13:53:40;;;;;;;3.73;2.50;;;;;;;;;;5074040;28;20202;-67
2022/06/14 13:56:06;;;;;;;3.83;2.20;;;;;;;;;;5076453;28;20184;-67
2022/06/14 13:58:41;;;;;;;4.40;1.93;;;;;;;;;;5058265;28;20185;-67
2022/06/14 14:01:20;;;;;;;4.53;2.10;;;;;;;;;;5058220;28;20703;-67
2022/06/14 14:03:51;;;;;;;4.33;2.20;;;;;;;;;;5058369;28;20189;-67
2022/06/14 14:06:35;;;;;;;3.37;1.93;;;;;;;;;;5058083;28;20174;-67
2022/06/14 14:09:01;;;;;;;;;;;;;;;;;;5058333;28;20489;-67
2022/06/14 14:11:33;;;;;;;3.63;2.10;;;;;;;;;;5057924;28;20206;-67
2022/06/14 14:14:14;;;;;;;4.20;2.42;;;;;;;;;;5074872;28;20384;-66
2022/06/14 14:16:59;;;;;;;2.90;1.95;;;;;;;;;;5075058;28;20422;-67
2022/06/14 14:19:45;;;;;;;5.15;2.30;;;;;;;;;;5074753;28;20403;-67
2022/06/14 14:22:18;;;;;;;5.37;2.50;;;;;;;;;;5075943;28;20204;-67
2022/06/14 14:25:10;;;;;;;3.77;1.80;;;;;;;;;;5075976;28;20248;-67
2022/06/14 14:27:58;;;;;;;4.83;2.40;;;;;;;;;;5075632;28;20244;-67
2022/06/14 14:30:24;;;;;;;5.17;2.40;;;;;;;;;;5057679;28;20266;-67
2022/06/14 14:32:54;;;;;;;4.28;2.10;;;;;;;;;;5075546;28;20646;-67
2022/06/14 14:35:41;;;;;;;4.18;2.10;;;;;;;;;;5076053;28;20169;-67
2022/06/14 14:38:12;;;;;;;3.07;2.00;;;;;;;;;;5075672;28;20180;-67
2022/06/14 14:43:56;;;;;;;5.35;2.40;;;;;;;;;;5041416;28;20542;-68
2022/06/14 14:46:27;;;;;;;3.63;2.13;;;;;;;;;;5075555;28;20644;-67
2022/06/14 14:49:00;;;;;;;4.43;2.20;;;;;;;;;;5057255;28;20182;-67
2022/06/14 14:51:38;;;;;;;4.03;1.90;;;;;;;;;;5057284;28;20273;-68
2022/06/14 14:54:07;;;;;;;6.50;1.93;;;;;;;;;;5057186;28;20205;-67
2022/06/14 14:56:38;;;;;;;5.77;2.37;;;;;;;;;;5075415;28;20595;-67
2022/06/14 14:59:19;;;;;;;4.70;1.97;;;;;;;;;;5075333;28;20177;-67
2022/06/14 15:07:25;;;;;;;6.30;1.90;;;;;;;;;;5075364;28;20232;-67
2022/06/14 15:10:04;;;;;;;5.30;2.00;;;;;;;;;;5075208;28;20178;-66
2022/06/14 15:12:35;;;;;;;3.25;1.77;;;;;;;;;;5056735;28;20300;-66
2022/06/14 15:15:30;;;;;;;4.20;2.23;;;;;;;;;;5074940;28;20165;-66
2022/06/14 15:20:52;;;;;;;5.23;2.30;;;;;;;;;;5074795;28;20201;-67
2022/06/14 15:23:23;;;;;;;5.20;2.20;;;;;;;;;;5056626;28;20206;-67
2022/06/14 15:25:49;;;;;;;6.83;2.70;;;;;;;;;;5074645;28;20529;-67
2022/06/14 15:28:20;;;;;;;4.97;2.33;;;;;;;;;;5074955;28;20246;-67
2022/06/14 15:30:51;;;;;;;6.90;3.17;;;;;;;;;;5074643;28;20211;-65
2022/06/14 15:33:34;;;;;;;5.15;2.45;;;;;;;;;;5074468;28;20233;-65
2022/06/14 15:36:05;;;;;;;8.70;2.23;;;;;;;;;;5056637;28;20170;-65
2022/06/14 15:38:51;;;;;;;3.93;1.97;;;;;;;;;;5074419;28;20658;-66
2022/06/14 15:41:20;;;;;;;8.87;3.10;;;;;;;;;;5056956;28;20268;-66
2022/06/14 15:43:56;;;;;;;5.65;2.75;;;;;;;;;;5056449;28;20597;-66
2022/06/14 15:46:24;;;;;;;5.88;2.17;;;;;;;;;;5074225;28;20233;-67
2022/06/14 15:49:01;;;;;;;5.28;2.47;;;;;;;;;;5074400;28;20174;-66
2022/06/14 15:51:27;;;;;;;7.75;2.67;;;;;;;;;;5074057;28;20170;-67